sensor_id;sensor_type;location;lat;lon;timestamp;P1;durP1;ratioP1;P2;durP2;ratioP2
1685;SDS011;840;47.980;7.830;2022-07-22T00:02:11;5.77;;;5.27;;
1685;SDS011;840;47.980;7.830;2022-07-22T00:04:38;5.67;;;5.20;;
1685;SDS011;840;47.980;7.830;2022-07-22T00:07:06;4.97;;;4.47;;
1685;SDS011;840;47.980;7.830;2022-07-22T00:09:33;4.63;;;4.23;;
1685;SDS011;840;47.980;7.830;2022-07-22T00:12:00;6.40;;;5.90;;
1685;SDS011;840;47.980;7.830;2022-07-22T00:14:27;5.10;;;4.70;;
1685;SDS011;840;47.980;7.830;2022-07-22T00:16:54;4.87;;;4.57;;
1685;SDS011;840;47.980;7.830;2022-07-22T00:19:21;7.30;;;4.93;;
1685;SDS011;840;47.980;7.830;2022-07-22T00:21:49;6.53;;;6.00;;
1685;SDS011;840;47.980;7.830;2022-07-22T00:24:17;5.27;;;4.87;;
1685;SDS011;840;47.980;7.830;2022-07-22T00:26:44;5.40;;;5.00;;
1685;SDS011;840;47.980;7.830;2022-07-22T00:29:11;4.80;;;4.50;;
1685;SDS011;840;47.980;7.830;2022-07-22T00:31:38;6.10;;;5.50;;
1685;SDS011;840;47.980;7.830;2022-07-22T00:34:04;6.67;;;5.00;;
1685;SDS011;840;47.980;7.830;2022-07-22T00:36:31;5.73;;;5.30;;
1685;SDS011;840;47.980;7.830;2022-07-22T00:38:58;5.43;;;4.93;;
1685;SDS011;840;47.980;7.830;2022-07-22T00:41:26;5.80;;;5.23;;
1685;SDS011;840;47.980;7.830;2022-07-22T00:43:56;5.43;;;5.03;;
1685;SDS011;840;47.980;7.830;2022-07-22T00:46:25;6.40;;;5.90;;
1685;SDS011;840;47.980;7.830;2022-07-22T00:48:53;5.37;;;4.87;;
1685;SDS011;840;47.980;7.830;2022-07-22T00:51:20;6.17;;;5.67;;
1685;SDS011;840;47.980;7.830;2022-07-22T00:53:48;6.57;;;6.00;;
1685;SDS011;840;47.980;7.830;2022-07-22T00:56:15;5.80;;;5.27;;
1685;SDS011;840;47.980;7.830;2022-07-22T00:58:44;6.00;;;5.50;;
1685;SDS011;840;47.980;7.830;2022-07-22T01:01:12;6.40;;;5.80;;
1685;SDS011;840;47.980;7.830;2022-07-22T01:03:39;5.77;;;5.30;;
1685;SDS011;840;47.980;7.830;2022-07-22T01:06:06;5.97;;;5.47;;
1685;SDS011;840;47.980;7.830;2022-07-22T01:08:34;6.10;;;5.60;;
1685;SDS011;840;47.980;7.830;2022-07-22T01:11:07;6.77;;;6.13;;
1685;SDS011;840;47.980;7.830;2022-07-22T01:13:35;6.17;;;5.67;;
1685;SDS011;840;47.980;7.830;2022-07-22T01:16:04;5.40;;;4.90;;
1685;SDS011;840;47.980;7.830;2022-07-22T01:18:32;5.67;;;5.27;;
1685;SDS011;840;47.980;7.830;2022-07-22T01:21:00;5.50;;;5.00;;
1685;SDS011;840;47.980;7.830;2022-07-22T01:23:27;5.60;;;5.20;;
1685;SDS011;840;47.980;7.830;2022-07-22T01:25:54;5.57;;;5.07;;
1685;SDS011;840;47.980;7.830;2022-07-22T01:28:20;6.67;;;5.90;;
1685;SDS011;840;47.980;7.830;2022-07-22T01:30:48;5.87;;;5.47;;
1685;SDS011;840;47.980;7.830;2022-07-22T01:33:15;5.67;;;5.20;;
1685;SDS011;840;47.980;7.830;2022-07-22T01:35:42;6.63;;;5.57;;
1685;SDS011;840;47.980;7.830;2022-07-22T01:38:10;5.93;;;5.47;;
1685;SDS011;840;47.980;7.830;2022-07-22T01:40:37;5.90;;;5.40;;
1685;SDS011;840;47.980;7.830;2022-07-22T01:43:05;6.40;;;5.77;;
1685;SDS011;840;47.980;7.830;2022-07-22T01:45:32;4.67;;;4.37;;
1685;SDS011;840;47.980;7.830;2022-07-22T01:47:59;6.13;;;5.40;;
1685;SDS011;840;47.980;7.830;2022-07-22T01:50:26;5.80;;;5.30;;
1685;SDS011;840;47.980;7.830;2022-07-22T01:52:54;5.47;;;5.07;;
1685;SDS011;840;47.980;7.830;2022-07-22T01:55:22;6.07;;;5.57;;
1685;SDS011;840;47.980;7.830;2022-07-22T01:57:49;5.37;;;4.87;;
1685;SDS011;840;47.980;7.830;2022-07-22T02:00:16;6.23;;;5.60;;
1685;SDS011;840;47.980;7.830;2022-07-22T02:02:43;5.40;;;5.00;;
1685;SDS011;840;47.980;7.830;2022-07-22T02:05:09;5.50;;;5.10;;
1685;SDS011;840;47.980;7.830;2022-07-22T02:07:36;5.43;;;5.03;;
1685;SDS011;840;47.980;7.830;2022-07-22T02:10:03;7.00;;;4.97;;
1685;SDS011;840;47.980;7.830;2022-07-22T02:12:32;5.90;;;5.30;;
1685;SDS011;840;47.980;7.830;2022-07-22T02:15:00;5.47;;;5.07;;
1685;SDS011;840;47.980;7.830;2022-07-22T02:17:26;5.63;;;5.13;;
1685;SDS011;840;47.980;7.830;2022-07-22T02:19:53;7.23;;;5.00;;
1685;SDS011;840;47.980;7.830;2022-07-22T02:22:20;5.97;;;5.37;;
1685;SDS011;840;47.980;7.830;2022-07-22T02:24:47;6.13;;;5.53;;
1685;SDS011;840;47.980;7.830;2022-07-22T02:27:14;6.27;;;4.90;;
1685;SDS011;840;47.980;7.830;2022-07-22T02:29:42;6.03;;;5.37;;
1685;SDS011;840;47.980;7.830;2022-07-22T02:32:09;5.53;;;5.03;;
1685;SDS011;840;47.980;7.830;2022-07-22T02:34:36;7.87;;;6.60;;
1685;SDS011;840;47.980;7.830;2022-07-22T02:37:02;6.13;;;5.47;;
1685;SDS011;840;47.980;7.830;2022-07-22T02:39:29;6.70;;;5.53;;
1685;SDS011;840;47.980;7.830;2022-07-22T02:41:56;5.63;;;5.20;;
1685;SDS011;840;47.980;7.830;2022-07-22T02:44:23;6.07;;;5.57;;
1685;SDS011;840;47.980;7.830;2022-07-22T02:46:51;6.27;;;5.87;;
1685;SDS011;840;47.980;7.830;2022-07-22T02:49:18;6.10;;;5.50;;
1685;SDS011;840;47.980;7.830;2022-07-22T02:51:44;6.90;;;6.30;;
1685;SDS011;840;47.980;7.830;2022-07-22T02:54:11;6.07;;;5.50;;
1685;SDS011;840;47.980;7.830;2022-07-22T02:56:38;5.50;;;5.10;;
1685;SDS011;840;47.980;7.830;2022-07-22T02:59:05;6.53;;;5.93;;
1685;SDS011;840;47.980;7.830;2022-07-22T03:01:31;5.63;;;5.00;;
1685;SDS011;840;47.980;7.830;2022-07-22T03:03:59;5.50;;;5.00;;
1685;SDS011;840;47.980;7.830;2022-07-22T03:06:26;6.63;;;6.10;;
1685;SDS011;840;47.980;7.830;2022-07-22T03:08:53;5.90;;;5.33;;
1685;SDS011;840;47.980;7.830;2022-07-22T03:11:20;8.17;;;4.70;;
1685;SDS011;840;47.980;7.830;2022-07-22T03:13:46;6.30;;;5.73;;
1685;SDS011;840;47.980;7.830;2022-07-22T03:16:13;5.93;;;5.43;;
1685;SDS011;840;47.980;7.830;2022-07-22T03:18:40;5.90;;;5.40;;
1685;SDS011;840;47.980;7.830;2022-07-22T03:21:08;5.13;;;4.73;;
1685;SDS011;840;47.980;7.830;2022-07-22T03:23:35;6.47;;;5.87;;
1685;SDS011;840;47.980;7.830;2022-07-22T03:26:01;5.50;;;5.10;;
1685;SDS011;840;47.980;7.830;2022-07-22T03:28:28;6.30;;;5.63;;
1685;SDS011;840;47.980;7.830;2022-07-22T03:30:55;6.20;;;5.13;;
1685;SDS011;840;47.980;7.830;2022-07-22T03:33:22;5.83;;;5.27;;
1685;SDS011;840;47.980;7.830;2022-07-22T03:35:49;5.67;;;5.03;;
1685;SDS011;840;47.980;7.830;2022-07-22T03:38:17;5.50;;;5.00;;
1685;SDS011;840;47.980;7.830;2022-07-22T03:40:44;5.33;;;4.93;;
1685;SDS011;840;47.980;7.830;2022-07-22T03:43:10;5.20;;;4.80;;
1685;SDS011;840;47.980;7.830;2022-07-22T03:45:37;7.60;;;5.90;;
1685;SDS011;840;47.980;7.830;2022-07-22T03:48:06;5.77;;;5.27;;
1685;SDS011;840;47.980;7.830;2022-07-22T03:50:33;6.70;;;6.20;;
1685;SDS011;840;47.980;7.830;2022-07-22T03:53:00;6.27;;;5.50;;
1685;SDS011;840;47.980;7.830;2022-07-22T03:55:28;5.33;;;4.93;;
1685;SDS011;840;47.980;7.830;2022-07-22T03:57:55;6.47;;;5.70;;
1685;SDS011;840;47.980;7.830;2022-07-22T04:00:22;5.43;;;4.93;;
1685;SDS011;840;47.980;7.830;2022-07-22T04:02:49;6.40;;;5.80;;
1685;SDS011;840;47.980;7.830;2022-07-22T04:05:16;6.87;;;6.37;;
1685;SDS011;840;47.980;7.830;2022-07-22T04:07:43;5.70;;;5.20;;
1685;SDS011;840;47.980;7.830;2022-07-22T04:10:10;5.57;;;5.17;;
1685;SDS011;840;47.980;7.830;2022-07-22T04:12:39;6.67;;;6.10;;
1685;SDS011;840;47.980;7.830;2022-07-22T04:15:07;6.03;;;5.53;;
1685;SDS011;840;47.980;7.830;2022-07-22T04:17:35;5.83;;;5.30;;
1685;SDS011;840;47.980;7.830;2022-07-22T04:20:03;6.37;;;5.87;;
1685;SDS011;840;47.980;7.830;2022-07-22T04:22:31;5.53;;;5.00;;
1685;SDS011;840;47.980;7.830;2022-07-22T04:24:57;5.50;;;5.10;;
1685;SDS011;840;47.980;7.830;2022-07-22T04:27:24;5.43;;;5.03;;
1685;SDS011;840;47.980;7.830;2022-07-22T04:29:52;7.60;;;6.90;;
1685;SDS011;840;47.980;7.830;2022-07-22T04:32:19;6.27;;;5.67;;
1685;SDS011;840;47.980;7.830;2022-07-22T04:34:46;5.97;;;5.57;;
1685;SDS011;840;47.980;7.830;2022-07-22T04:37:13;6.50;;;5.63;;
1685;SDS011;840;47.980;7.830;2022-07-22T04:39:40;6.20;;;5.80;;
1685;SDS011;840;47.980;7.830;2022-07-22T04:42:07;6.30;;;5.77;;
1685;SDS011;840;47.980;7.830;2022-07-22T04:44:33;6.13;;;5.63;;
1685;SDS011;840;47.980;7.830;2022-07-22T04:47:01;6.80;;;6.30;;
1685;SDS011;840;47.980;7.830;2022-07-22T04:49:28;5.73;;;5.33;;
1685;SDS011;840;47.980;7.830;2022-07-22T04:51:55;5.20;;;4.80;;
1685;SDS011;840;47.980;7.830;2022-07-22T04:54:22;5.47;;;4.97;;
1685;SDS011;840;47.980;7.830;2022-07-22T04:56:49;6.73;;;6.13;;
1685;SDS011;840;47.980;7.830;2022-07-22T04:59:15;6.47;;;5.97;;
1685;SDS011;840;47.980;7.830;2022-07-22T05:01:42;6.37;;;5.77;;
1685;SDS011;840;47.980;7.830;2022-07-22T05:04:10;6.70;;;6.10;;
1685;SDS011;840;47.980;7.830;2022-07-22T05:06:37;6.83;;;5.83;;
1685;SDS011;840;47.980;7.830;2022-07-22T05:09:04;6.90;;;5.40;;
1685;SDS011;840;47.980;7.830;2022-07-22T05:11:31;6.30;;;5.70;;
1685;SDS011;840;47.980;7.830;2022-07-22T05:13:58;6.03;;;5.40;;
1685;SDS011;840;47.980;7.830;2022-07-22T05:16:25;6.07;;;5.47;;
1685;SDS011;840;47.980;7.830;2022-07-22T05:18:52;6.17;;;5.67;;
1685;SDS011;840;47.980;7.830;2022-07-22T05:21:20;7.87;;;5.40;;
1685;SDS011;840;47.980;7.830;2022-07-22T05:23:47;7.77;;;6.60;;
1685;SDS011;840;47.980;7.830;2022-07-22T05:26:14;6.90;;;6.40;;
1685;SDS011;840;47.980;7.830;2022-07-22T05:28:41;6.27;;;5.70;;
1685;SDS011;840;47.980;7.830;2022-07-22T05:31:08;7.73;;;7.03;;
1685;SDS011;840;47.980;7.830;2022-07-22T05:33:34;7.50;;;6.83;;
1685;SDS011;840;47.980;7.830;2022-07-22T05:36:01;10.63;;;9.40;;
1685;SDS011;840;47.980;7.830;2022-07-22T05:38:30;10.60;;;9.60;;
1685;SDS011;840;47.980;7.830;2022-07-22T05:40:58;10.30;;;9.57;;
1685;SDS011;840;47.980;7.830;2022-07-22T05:43:24;9.27;;;8.47;;
1685;SDS011;840;47.980;7.830;2022-07-22T05:45:51;10.73;;;9.83;;
1685;SDS011;840;47.980;7.830;2022-07-22T05:48:18;10.70;;;9.70;;
1685;SDS011;840;47.980;7.830;2022-07-22T05:50:45;10.60;;;9.60;;
1685;SDS011;840;47.980;7.830;2022-07-22T05:53:12;10.83;;;9.70;;
1685;SDS011;840;47.980;7.830;2022-07-22T05:55:40;10.93;;;9.93;;
1685;SDS011;840;47.980;7.830;2022-07-22T05:58:06;10.17;;;9.30;;
1685;SDS011;840;47.980;7.830;2022-07-22T06:00:33;10.97;;;10.07;;
1685;SDS011;840;47.980;7.830;2022-07-22T06:03:01;10.60;;;9.70;;
1685;SDS011;840;47.980;7.830;2022-07-22T06:05:28;10.50;;;9.50;;
1685;SDS011;840;47.980;7.830;2022-07-22T06:07:54;10.53;;;9.73;;
1685;SDS011;840;47.980;7.830;2022-07-22T06:10:21;11.10;;;10.10;;
1685;SDS011;840;47.980;7.830;2022-07-22T06:12:49;10.87;;;9.93;;
1685;SDS011;840;47.980;7.830;2022-07-22T06:15:16;9.03;;;8.33;;
1685;SDS011;840;47.980;7.830;2022-07-22T06:17:43;11.47;;;10.33;;
1685;SDS011;840;47.980;7.830;2022-07-22T06:20:09;9.80;;;9.00;;
1685;SDS011;840;47.980;7.830;2022-07-22T06:22:38;9.93;;;9.03;;
1685;SDS011;840;47.980;7.830;2022-07-22T06:25:05;10.27;;;9.37;;
1685;SDS011;840;47.980;7.830;2022-07-22T06:27:33;10.37;;;9.47;;
1685;SDS011;840;47.980;7.830;2022-07-22T06:30:01;9.57;;;8.70;;
1685;SDS011;840;47.980;7.830;2022-07-22T06:32:28;10.87;;;9.87;;
1685;SDS011;840;47.980;7.830;2022-07-22T06:34:55;10.87;;;9.97;;
1685;SDS011;840;47.980;7.830;2022-07-22T06:37:22;10.83;;;9.80;;
1685;SDS011;840;47.980;7.830;2022-07-22T06:39:48;13.20;;;10.40;;
1685;SDS011;840;47.980;7.830;2022-07-22T06:42:15;11.57;;;10.57;;
1685;SDS011;840;47.980;7.830;2022-07-22T06:44:42;10.87;;;9.87;;
1685;SDS011;840;47.980;7.830;2022-07-22T06:47:10;12.53;;;10.10;;
1685;SDS011;840;47.980;7.830;2022-07-22T06:49:37;11.00;;;10.00;;
1685;SDS011;840;47.980;7.830;2022-07-22T06:52:04;11.17;;;10.03;;
1685;SDS011;840;47.980;7.830;2022-07-22T06:54:30;11.03;;;10.03;;
1685;SDS011;840;47.980;7.830;2022-07-22T06:56:57;12.20;;;11.10;;
1685;SDS011;840;47.980;7.830;2022-07-22T06:59:24;10.67;;;9.70;;
1685;SDS011;840;47.980;7.830;2022-07-22T07:01:51;16.93;;;10.40;;
1685;SDS011;840;47.980;7.830;2022-07-22T07:04:19;12.10;;;11.10;;
1685;SDS011;840;47.980;7.830;2022-07-22T07:06:46;10.40;;;9.37;;
1685;SDS011;840;47.980;7.830;2022-07-22T07:09:13;10.70;;;9.87;;
1685;SDS011;840;47.980;7.830;2022-07-22T07:11:40;10.13;;;9.17;;
1685;SDS011;840;47.980;7.830;2022-07-22T07:14:06;12.03;;;10.63;;
1685;SDS011;840;47.980;7.830;2022-07-22T07:16:33;11.30;;;10.20;;
1685;SDS011;840;47.980;7.830;2022-07-22T07:19:00;9.63;;;8.93;;
1685;SDS011;840;47.980;7.830;2022-07-22T07:21:29;8.27;;;7.40;;
1685;SDS011;840;47.980;7.830;2022-07-22T07:23:55;10.53;;;9.43;;
1685;SDS011;840;47.980;7.830;2022-07-22T07:26:23;11.57;;;10.40;;
1685;SDS011;840;47.980;7.830;2022-07-22T07:28:50;10.30;;;9.30;;
1685;SDS011;840;47.980;7.830;2022-07-22T07:31:16;9.43;;;8.70;;
1685;SDS011;840;47.980;7.830;2022-07-22T07:33:44;12.07;;;10.73;;
1685;SDS011;840;47.980;7.830;2022-07-22T07:36:10;10.40;;;9.60;;
1685;SDS011;840;47.980;7.830;2022-07-22T07:38:39;12.40;;;11.20;;
1685;SDS011;840;47.980;7.830;2022-07-22T07:41:06;10.90;;;10.00;;
1685;SDS011;840;47.980;7.830;2022-07-22T07:43:32;10.37;;;9.50;;
1685;SDS011;840;47.980;7.830;2022-07-22T07:45:59;11.03;;;10.03;;
1685;SDS011;840;47.980;7.830;2022-07-22T07:48:26;10.20;;;9.20;;
1685;SDS011;840;47.980;7.830;2022-07-22T07:50:53;13.17;;;10.77;;
1685;SDS011;840;47.980;7.830;2022-07-22T07:53:20;10.73;;;9.53;;
1685;SDS011;840;47.980;7.830;2022-07-22T07:55:48;11.80;;;10.60;;
1685;SDS011;840;47.980;7.830;2022-07-22T07:58:15;10.30;;;9.30;;
1685;SDS011;840;47.980;7.830;2022-07-22T08:00:42;10.50;;;9.50;;
1685;SDS011;840;47.980;7.830;2022-07-22T08:03:09;9.43;;;8.63;;
1685;SDS011;840;47.980;7.830;2022-07-22T08:05:36;11.73;;;10.70;;
1685;SDS011;840;47.980;7.830;2022-07-22T08:08:04;9.90;;;9.10;;
1685;SDS011;840;47.980;7.830;2022-07-22T08:10:32;10.80;;;9.80;;
1685;SDS011;840;47.980;7.830;2022-07-22T08:13:00;10.07;;;9.17;;
1685;SDS011;840;47.980;7.830;2022-07-22T08:15:28;9.47;;;8.67;;
1685;SDS011;840;47.980;7.830;2022-07-22T08:17:55;11.10;;;10.17;;
1685;SDS011;840;47.980;7.830;2022-07-22T08:20:23;10.57;;;9.57;;
1685;SDS011;840;47.980;7.830;2022-07-22T08:22:50;11.20;;;10.00;;
1685;SDS011;840;47.980;7.830;2022-07-22T08:25:18;10.33;;;9.23;;
1685;SDS011;840;47.980;7.830;2022-07-22T08:27:45;10.93;;;9.97;;
1685;SDS011;840;47.980;7.830;2022-07-22T08:30:14;11.33;;;10.33;;
1685;SDS011;840;47.980;7.830;2022-07-22T08:32:42;9.70;;;8.90;;
1685;SDS011;840;47.980;7.830;2022-07-22T08:35:09;9.20;;;8.50;;
1685;SDS011;840;47.980;7.830;2022-07-22T08:37:37;9.07;;;8.37;;
1685;SDS011;840;47.980;7.830;2022-07-22T08:40:05;9.80;;;8.90;;
1685;SDS011;840;47.980;7.830;2022-07-22T08:42:35;8.93;;;8.30;;
1685;SDS011;840;47.980;7.830;2022-07-22T08:45:03;9.17;;;8.47;;
1685;SDS011;840;47.980;7.830;2022-07-22T08:47:32;10.83;;;9.40;;
1685;SDS011;840;47.980;7.830;2022-07-22T08:50:00;9.30;;;8.43;;
1685;SDS011;840;47.980;7.830;2022-07-22T08:52:27;9.17;;;8.00;;
1685;SDS011;840;47.980;7.830;2022-07-22T08:54:54;9.30;;;8.50;;
1685;SDS011;840;47.980;7.830;2022-07-22T08:57:21;10.60;;;9.70;;
1685;SDS011;840;47.980;7.830;2022-07-22T08:59:48;10.40;;;9.33;;
1685;SDS011;840;47.980;7.830;2022-07-22T09:02:16;10.43;;;9.53;;
1685;SDS011;840;47.980;7.830;2022-07-22T09:04:51;8.93;;;8.13;;
1685;SDS011;840;47.980;7.830;2022-07-22T09:07:23;10.00;;;9.10;;
1685;SDS011;840;47.980;7.830;2022-07-22T09:09:54;9.73;;;8.90;;
1685;SDS011;840;47.980;7.830;2022-07-22T09:12:21;9.70;;;8.80;;
1685;SDS011;840;47.980;7.830;2022-07-22T09:14:49;10.10;;;9.10;;
1685;SDS011;840;47.980;7.830;2022-07-22T09:17:23;9.20;;;8.33;;
1685;SDS011;840;47.980;7.830;2022-07-22T09:19:54;8.47;;;7.87;;
1685;SDS011;840;47.980;7.830;2022-07-22T09:22:30;10.70;;;9.60;;
1685;SDS011;840;47.980;7.830;2022-07-22T09:24:58;10.00;;;9.10;;
1685;SDS011;840;47.980;7.830;2022-07-22T09:27:25;8.67;;;8.07;;
1685;SDS011;840;47.980;7.830;2022-07-22T09:29:54;8.73;;;8.03;;
1685;SDS011;840;47.980;7.830;2022-07-22T09:32:21;10.47;;;8.40;;
1685;SDS011;840;47.980;7.830;2022-07-22T09:34:48;10.23;;;9.07;;
1685;SDS011;840;47.980;7.830;2022-07-22T09:37:16;9.70;;;9.00;;
1685;SDS011;840;47.980;7.830;2022-07-22T09:39:43;9.70;;;8.73;;
1685;SDS011;840;47.980;7.830;2022-07-22T09:42:10;10.80;;;8.90;;
1685;SDS011;840;47.980;7.830;2022-07-22T09:44:36;12.77;;;10.33;;
1685;SDS011;840;47.980;7.830;2022-07-22T09:47:03;10.27;;;9.17;;
1685;SDS011;840;47.980;7.830;2022-07-22T09:49:31;10.43;;;9.60;;
1685;SDS011;840;47.980;7.830;2022-07-22T09:51:59;10.23;;;9.33;;
1685;SDS011;840;47.980;7.830;2022-07-22T09:54:29;16.73;;;8.70;;
1685;SDS011;840;47.980;7.830;2022-07-22T09:56:57;9.27;;;8.43;;
1685;SDS011;840;47.980;7.830;2022-07-22T09:59:24;9.50;;;7.57;;
1685;SDS011;840;47.980;7.830;2022-07-22T10:01:53;9.37;;;8.40;;
1685;SDS011;840;47.980;7.830;2022-07-22T10:04:22;10.10;;;9.30;;
1685;SDS011;840;47.980;7.830;2022-07-22T10:06:51;10.97;;;10.03;;
1685;SDS011;840;47.980;7.830;2022-07-22T10:09:20;9.13;;;8.40;;
1685;SDS011;840;47.980;7.830;2022-07-22T10:11:52;9.60;;;8.50;;
1685;SDS011;840;47.980;7.830;2022-07-22T10:14:20;9.53;;;8.63;;
1685;SDS011;840;47.980;7.830;2022-07-22T10:16:48;9.70;;;8.90;;
1685;SDS011;840;47.980;7.830;2022-07-22T10:19:15;8.37;;;7.63;;
1685;SDS011;840;47.980;7.830;2022-07-22T10:21:43;9.40;;;8.60;;
1685;SDS011;840;47.980;7.830;2022-07-22T10:24:10;10.90;;;9.03;;
1685;SDS011;840;47.980;7.830;2022-07-22T10:26:48;8.93;;;8.23;;
1685;SDS011;840;47.980;7.830;2022-07-22T10:29:25;7.83;;;7.27;;
1685;SDS011;840;47.980;7.830;2022-07-22T10:35:19;9.43;;;8.50;;
1685;SDS011;840;47.980;7.830;2022-07-22T10:37:51;8.63;;;8.00;;
1685;SDS011;840;47.980;7.830;2022-07-22T10:40:20;10.30;;;9.27;;
1685;SDS011;840;47.980;7.830;2022-07-22T10:45:38;8.43;;;7.53;;
1685;SDS011;840;47.980;7.830;2022-07-22T10:48:09;9.33;;;8.43;;
1685;SDS011;840;47.980;7.830;2022-07-22T10:50:41;8.43;;;7.67;;
1685;SDS011;840;47.980;7.830;2022-07-22T10:53:38;9.27;;;8.57;;
1685;SDS011;840;47.980;7.830;2022-07-22T10:56:12;10.70;;;8.90;;
1685;SDS011;840;47.980;7.830;2022-07-22T11:01:34;8.23;;;7.67;;
1685;SDS011;840;47.980;7.830;2022-07-22T11:04:12;9.00;;;8.10;;
1685;SDS011;840;47.980;7.830;2022-07-22T11:06:41;15.43;;;7.87;;
1685;SDS011;840;47.980;7.830;2022-07-22T11:09:09;9.50;;;8.50;;
1685;SDS011;840;47.980;7.830;2022-07-22T11:11:39;7.97;;;7.33;;
1685;SDS011;840;47.980;7.830;2022-07-22T11:14:12;8.77;;;8.17;;
1685;SDS011;840;47.980;7.830;2022-07-22T11:16:40;8.83;;;8.13;;
1685;SDS011;840;47.980;7.830;2022-07-22T11:19:10;9.00;;;8.30;;
1685;SDS011;840;47.980;7.830;2022-07-22T11:21:37;8.90;;;8.10;;
1685;SDS011;840;47.980;7.830;2022-07-22T11:24:05;8.23;;;7.53;;
1685;SDS011;840;47.980;7.830;2022-07-22T11:26:34;9.40;;;8.60;;
1685;SDS011;840;47.980;7.830;2022-07-22T11:29:05;8.50;;;7.57;;
1685;SDS011;840;47.980;7.830;2022-07-22T11:31:34;8.93;;;8.00;;
1685;SDS011;840;47.980;7.830;2022-07-22T11:34:05;8.13;;;7.50;;
1685;SDS011;840;47.980;7.830;2022-07-22T11:36:34;9.57;;;8.20;;
1685;SDS011;840;47.980;7.830;2022-07-22T11:39:02;9.27;;;8.57;;
1685;SDS011;840;47.980;7.830;2022-07-22T11:41:30;8.30;;;7.70;;
1685;SDS011;840;47.980;7.830;2022-07-22T11:43:58;10.03;;;8.90;;
1685;SDS011;840;47.980;7.830;2022-07-22T11:46:26;9.37;;;8.67;;
1685;SDS011;840;47.980;7.830;2022-07-22T11:48:55;9.70;;;8.90;;
1685;SDS011;840;47.980;7.830;2022-07-22T11:51:27;10.23;;;8.17;;
1685;SDS011;840;47.980;7.830;2022-07-22T11:53:55;9.87;;;8.60;;
1685;SDS011;840;47.980;7.830;2022-07-22T11:56:23;8.43;;;7.50;;
1685;SDS011;840;47.980;7.830;2022-07-22T11:58:50;8.53;;;7.83;;
1685;SDS011;840;47.980;7.830;2022-07-22T12:01:20;12.90;;;8.33;;
1685;SDS011;840;47.980;7.830;2022-07-22T12:03:48;8.67;;;7.87;;
1685;SDS011;840;47.980;7.830;2022-07-22T12:06:19;8.80;;;8.10;;
1685;SDS011;840;47.980;7.830;2022-07-22T12:08:48;11.27;;;8.00;;
1685;SDS011;840;47.980;7.830;2022-07-22T12:11:17;8.07;;;7.47;;
1685;SDS011;840;47.980;7.830;2022-07-22T12:13:45;9.53;;;8.40;;
1685;SDS011;840;47.980;7.830;2022-07-22T12:16:21;8.60;;;7.90;;
1685;SDS011;840;47.980;7.830;2022-07-22T12:18:50;8.13;;;7.47;;
1685;SDS011;840;47.980;7.830;2022-07-22T12:21:19;8.57;;;7.97;;
1685;SDS011;840;47.980;7.830;2022-07-22T12:23:50;9.40;;;8.50;;
1685;SDS011;840;47.980;7.830;2022-07-22T12:26:18;8.87;;;8.23;;
1685;SDS011;840;47.980;7.830;2022-07-22T12:28:45;10.50;;;8.87;;
1685;SDS011;840;47.980;7.830;2022-07-22T12:31:12;10.90;;;9.80;;
1685;SDS011;840;47.980;7.830;2022-07-22T12:33:46;8.03;;;7.43;;
1685;SDS011;840;47.980;7.830;2022-07-22T12:36:13;8.20;;;7.60;;
1685;SDS011;840;47.980;7.830;2022-07-22T12:38:42;9.03;;;8.27;;
1685;SDS011;840;47.980;7.830;2022-07-22T12:41:21;8.90;;;8.20;;
1685;SDS011;840;47.980;7.830;2022-07-22T12:43:52;8.03;;;7.43;;
1685;SDS011;840;47.980;7.830;2022-07-22T12:46:19;9.53;;;8.77;;
1685;SDS011;840;47.980;7.830;2022-07-22T12:48:52;9.43;;;8.73;;
1685;SDS011;840;47.980;7.830;2022-07-22T12:51:25;8.30;;;7.60;;
1685;SDS011;840;47.980;7.830;2022-07-22T12:53:53;8.50;;;7.83;;
1685;SDS011;840;47.980;7.830;2022-07-22T12:56:19;9.00;;;8.33;;
1685;SDS011;840;47.980;7.830;2022-07-22T12:58:47;8.57;;;7.87;;
1685;SDS011;840;47.980;7.830;2022-07-22T13:01:13;8.40;;;7.63;;
1685;SDS011;840;47.980;7.830;2022-07-22T13:03:40;7.80;;;7.10;;
1685;SDS011;840;47.980;7.830;2022-07-22T13:06:07;8.00;;;7.33;;
1685;SDS011;840;47.980;7.830;2022-07-22T13:08:36;7.87;;;7.27;;
1685;SDS011;840;47.980;7.830;2022-07-22T13:11:04;8.87;;;8.10;;
1685;SDS011;840;47.980;7.830;2022-07-22T13:13:31;8.90;;;8.20;;
1685;SDS011;840;47.980;7.830;2022-07-22T13:15:58;8.20;;;7.63;;
1685;SDS011;840;47.980;7.830;2022-07-22T13:18:25;8.63;;;6.93;;
1685;SDS011;840;47.980;7.830;2022-07-22T13:20:52;8.60;;;7.90;;
1685;SDS011;840;47.980;7.830;2022-07-22T13:23:18;8.53;;;7.67;;
1685;SDS011;840;47.980;7.830;2022-07-22T13:25:45;7.50;;;7.00;;
1685;SDS011;840;47.980;7.830;2022-07-22T13:28:14;7.80;;;7.30;;
1685;SDS011;840;47.980;7.830;2022-07-22T13:30:41;7.37;;;6.73;;
1685;SDS011;840;47.980;7.830;2022-07-22T13:33:08;8.10;;;7.50;;
1685;SDS011;840;47.980;7.830;2022-07-22T13:35:35;8.20;;;7.50;;
1685;SDS011;840;47.980;7.830;2022-07-22T13:38:02;8.40;;;7.77;;
1685;SDS011;840;47.980;7.830;2022-07-22T13:40:29;8.40;;;7.60;;
1685;SDS011;840;47.980;7.830;2022-07-22T13:42:58;7.90;;;7.20;;
1685;SDS011;840;47.980;7.830;2022-07-22T13:45:26;6.97;;;6.47;;
1685;SDS011;840;47.980;7.830;2022-07-22T13:47:53;6.50;;;5.97;;
1685;SDS011;840;47.980;7.830;2022-07-22T13:50:19;7.67;;;7.03;;
1685;SDS011;840;47.980;7.830;2022-07-22T13:52:46;7.90;;;7.20;;
1685;SDS011;840;47.980;7.830;2022-07-22T13:55:14;7.93;;;7.37;;
1685;SDS011;840;47.980;7.830;2022-07-22T13:57:41;8.07;;;7.47;;
1685;SDS011;840;47.980;7.830;2022-07-22T14:00:09;7.23;;;6.63;;
1685;SDS011;840;47.980;7.830;2022-07-22T14:02:38;7.30;;;6.60;;
1685;SDS011;840;47.980;7.830;2022-07-22T14:05:05;7.43;;;6.80;;
1685;SDS011;840;47.980;7.830;2022-07-22T14:07:32;7.47;;;6.87;;
1685;SDS011;840;47.980;7.830;2022-07-22T14:09:59;7.67;;;7.03;;
1685;SDS011;840;47.980;7.830;2022-07-22T14:12:26;7.60;;;6.97;;
1685;SDS011;840;47.980;7.830;2022-07-22T14:14:53;8.00;;;7.40;;
1685;SDS011;840;47.980;7.830;2022-07-22T14:17:20;7.20;;;6.60;;
1685;SDS011;840;47.980;7.830;2022-07-22T14:19:48;9.53;;;7.47;;
1685;SDS011;840;47.980;7.830;2022-07-22T14:22:15;6.57;;;6.17;;
1685;SDS011;840;47.980;7.830;2022-07-22T14:24:42;7.13;;;6.53;;
1685;SDS011;840;47.980;7.830;2022-07-22T14:27:09;5.70;;;5.20;;
1685;SDS011;840;47.980;7.830;2022-07-22T14:29:35;4.90;;;4.50;;
1685;SDS011;840;47.980;7.830;2022-07-22T14:32:03;5.50;;;4.90;;
1685;SDS011;840;47.980;7.830;2022-07-22T14:34:30;4.50;;;4.20;;
1685;SDS011;840;47.980;7.830;2022-07-22T14:36:58;5.40;;;5.00;;
1685;SDS011;840;47.980;7.830;2022-07-22T14:39:25;4.93;;;4.43;;
1685;SDS011;840;47.980;7.830;2022-07-22T14:41:52;5.37;;;4.93;;
1685;SDS011;840;47.980;7.830;2022-07-22T14:44:19;5.50;;;5.03;;
1685;SDS011;840;47.980;7.830;2022-07-22T14:46:46;5.60;;;5.20;;
1685;SDS011;840;47.980;7.830;2022-07-22T14:49:12;5.80;;;5.37;;
1685;SDS011;840;47.980;7.830;2022-07-22T14:51:40;5.13;;;4.63;;
1685;SDS011;840;47.980;7.830;2022-07-22T14:54:10;5.10;;;4.70;;
1685;SDS011;840;47.980;7.830;2022-07-22T14:56:36;5.80;;;4.37;;
1685;SDS011;840;47.980;7.830;2022-07-22T14:59:04;6.03;;;4.27;;
1685;SDS011;840;47.980;7.830;2022-07-22T15:01:31;4.90;;;4.50;;
1685;SDS011;840;47.980;7.830;2022-07-22T15:03:58;4.30;;;4.00;;
1685;SDS011;840;47.980;7.830;2022-07-22T15:06:27;4.40;;;4.00;;
1685;SDS011;840;47.980;7.830;2022-07-22T15:08:55;5.80;;;5.30;;
1685;SDS011;840;47.980;7.830;2022-07-22T15:11:29;5.67;;;5.20;;
1685;SDS011;840;47.980;7.830;2022-07-22T15:13:55;5.50;;;5.10;;
1685;SDS011;840;47.980;7.830;2022-07-22T15:16:25;5.20;;;4.90;;
1685;SDS011;840;47.980;7.830;2022-07-22T15:18:53;5.70;;;5.30;;
1685;SDS011;840;47.980;7.830;2022-07-22T15:21:19;4.90;;;4.60;;
1685;SDS011;840;47.980;7.830;2022-07-22T15:23:52;4.67;;;4.37;;
1685;SDS011;840;47.980;7.830;2022-07-22T15:26:22;4.73;;;4.33;;
1685;SDS011;840;47.980;7.830;2022-07-22T15:28:53;4.87;;;4.57;;
1685;SDS011;840;47.980;7.830;2022-07-22T15:31:24;5.27;;;4.97;;
1685;SDS011;840;47.980;7.830;2022-07-22T15:33:54;5.50;;;5.00;;
1685;SDS011;840;47.980;7.830;2022-07-22T15:36:24;5.77;;;5.23;;
1685;SDS011;840;47.980;7.830;2022-07-22T15:38:54;5.27;;;4.77;;